Time;durP1;ratioP1;P1;durP2;ratioP2;P2;SDS_P1;SDS_P2;PMS_P1;PMS_P2;Temp;Humidity;BMP_temperature;BMP_pressure;BME280_temperature;BME280_humidity;BME280_pressure;Samples;Min_cycle;Max_cycle;Signal;HPM_P1;HPM_P2
2021/12/17 00:00:44;;;;;;;;;;;;;;;;;;5066725;28;1080;-78
2021/12/17 00:03:18;;;;;;;;;;;;;;;;;;5066130;28;1349;-78
2021/12/17 00:08:12;;;;;;;;;;;;;;;;;;5086298;28;1116;-77
2021/12/17 00:10:38;;;;;;;;;;;;;;;;;;5069906;28;1302;-78
2021/12/17 00:13:04;;;;;;;;;;;;;;;;;;5063377;28;1210;-78
2021/12/17 00:15:29;;;;;;;;;;;;;;;;;;5079687;28;1266;-77
2021/12/17 00:18:02;;;;;;;;;;;;;;;;;;5068485;28;1929;-78
2021/12/17 00:52:59;;;;;;;;;;;;;;;;;;5073449;28;1128;-78
2021/12/17 00:55:25;;;;;;;;;;;;;;;;;;5076386;28;1159;-78
2021/12/17 00:57:51;;;;;;;;;;;;;;;;;;5084616;28;1898;-78
2021/12/17 01:00:18;;;;;;;;;;;;;;;;;;5082893;28;1166;-78
2021/12/17 01:02:44;;;;;;;;;;;;;;;;;;5072094;28;1175;-78
2021/12/17 01:05:18;;;;;;;;;;;;;;;;;;5071555;28;1180;-78
2021/12/17 01:07:44;;;;;;;;;;;;;;;;;;5085529;28;1212;-77
2021/12/17 01:10:12;;;;;;;;;;;;;;;;;;5081848;28;1306;-78
2021/12/17 01:12:37;;;;;;;;;;;;;;;;;;5083764;28;1501;-78
2021/12/17 01:15:05;;;;;;;;;;;;;;;;;;5068604;28;1147;-77
2021/12/17 01:17:33;;;;;;;;;;;;;;;;;;5064353;28;1953;-78
2021/12/17 01:20:32;;;;;;;;;;;;;;;;;;5064304;28;1141;-78
2021/12/17 01:36:22;;;;;;;;;;;;;;;;;;5070606;28;1963;-78
2021/12/17 01:44:11;;;;;;;;;;;;;;;;;;5064352;28;1037;-78
2021/12/17 01:46:37;;;;;;;;;;;;;;;;;;5084424;28;1179;-78
2021/12/17 02:00:07;;;;;;;;;;;;;;;;;;5075423;28;1037;-78
2021/12/17 02:02:39;;;;;;;;;;;;;;;;;;5065537;28;1356;-78
2021/12/17 02:05:15;;;;;;;;;;;;;;;;;;5080370;28;1308;-79
2021/12/17 02:07:41;;;;;;;;;;;;;;;;;;5083232;28;1240;-78
2021/12/17 02:28:53;;;;;;;;;;;;;;;;;;5062865;28;1024;-79
2021/12/17 02:31:27;;;;;;;;;;;;;;;;;;5061075;28;1416;-78
2021/12/17 02:33:53;;;;;;;;;;;;;;;;;;5066186;28;1290;-78
2021/12/17 02:36:26;;;;;;;;;;;;;;;;;;5059488;28;1981;-78
2021/12/17 02:38:54;;;;;;;;;;;;;;;;;;5047532;28;1332;-79
2021/12/17 02:46:57;;;;;;;;;;;;;;;;;;5063836;28;1088;-79
2021/12/17 02:49:27;;;;;;;;;;;;;;;;;;5062463;28;1148;-77
2021/12/17 02:51:52;;;;;;;;;;;;;;;;;;5069306;28;1435;-77
2021/12/17 02:54:18;;;;;;;;;;;;;;;;;;5067312;28;1174;-79
2021/12/17 02:56:43;;;;;;;;;;;;;;;;;;5056042;28;1951;-78
2021/12/17 02:59:13;;;;;;;;;;;;;;;;;;5066836;28;1326;-78
2021/12/17 03:01:41;;;;;;;;;;;;;;;;;;5059844;28;1331;-78
2021/12/17 03:04:11;;;;;;;;;;;;;;;;;;5068859;28;1297;-78
2021/12/17 03:06:36;;;;;;;;;;;;;;;;;;5080740;28;1236;-79
2021/12/17 03:09:04;;;;;;;;;;;;;;;;;;5082597;28;1312;-78
2021/12/17 03:11:29;;;;;;;;;;;;;;;;;;5042008;28;1403;-78
2021/12/17 03:13:54;;;;;;;;;;;;;;;;;;5072369;28;1109;-78
2021/12/17 03:16:39;;;;;;;;;;;;;;;;;;5049216;28;1963;-81
2021/12/17 03:23:24;;;;;;;;;;;;;;;;;;5084372;28;1448;-78
2021/12/17 03:24:42;;;;;;;;;;;;;;;;;;5065035;28;964;-79
2021/12/17 03:27:11;;;;;;;;;;;;;;;;;;5044162;28;1176;-78
2021/12/17 03:29:36;;;;;;;;;;;;;;;;;;5061233;28;1191;-77
2021/12/17 03:32:02;;;;;;;;;;;;;;;;;;5082320;28;1244;-78
2021/12/17 03:34:28;;;;;;;;;;;;;;;;;;5084025;28;1172;-77
2021/12/17 03:36:54;;;;;;;;;;;;;;;;;;5081762;28;1914;-77
2021/12/17 03:39:21;;;;;;;;;;;;;;;;;;5069120;28;1317;-78
2021/12/17 03:41:52;;;;;;;;;;;;;;;;;;5070205;28;1229;-77
2021/12/17 03:44:19;;;;;;;;;;;;;;;;;;5076959;28;1401;-77
2021/12/17 03:46:46;;;;;;;;;;;;;;;;;;5067848;28;1175;-77
2021/12/17 03:49:15;;;;;;;;;;;;;;;;;;5063348;28;1195;-78
2021/12/17 03:51:50;;;;;;;;;;;;;;;;;;5071759;28;1234;-78
2021/12/17 03:54:16;;;;;;;;;;;;;;;;;;5054478;28;1211;-77
2021/12/17 03:56:41;;;;;;;;;;;;;;;;;;5062117;28;1897;-79
2021/12/17 03:59:10;;;;;;;;;;;;;;;;;;5066468;28;1540;-79
2021/12/17 04:01:40;;;;;;;;;;;;;;;;;;5062449;28;1142;-79
2021/12/17 04:04:05;;;;;;;;;;;;;;;;;;5065842;28;1242;-78
2021/12/17 04:06:30;;;;;;;;;;;;;;;;;;5062526;28;1148;-78
2021/12/17 04:08:55;;;;;;;;;;;;;;;;;;5066826;28;1172;-79
2021/12/17 04:11:31;;;;;;;;;;;;;;;;;;5045448;28;1324;-79
2021/12/17 04:13:57;;;;;;;;;;;;;;;;;;5084434;28;1200;-77
2021/12/17 04:16:27;;;;;;;;;;;;;;;;;;5064762;28;1949;-78
2021/12/17 04:18:53;;;;;;;;;;;;;;;;;;5065436;28;1404;-77
2021/12/17 04:21:21;;;;;;;;;;;;;;;;;;5062159;28;1116;-77
2021/12/17 04:23:47;;;;;;;;;;;;;;;;;;5067146;28;1336;-78
2021/12/17 04:26:15;;;;;;;;;;;;;;;;;;5085875;28;1156;-78
2021/12/17 04:28:44;;;;;;;;;;;;;;;;;;5079497;28;1132;-77
2021/12/17 04:31:10;;;;;;;;;;;;;;;;;;5077475;28;1306;-78
2021/12/17 04:33:38;;;;;;;;;;;;;;;;;;5069881;28;1150;-78
2021/12/17 04:36:04;;;;;;;;;;;;;;;;;;5061781;28;1286;-78
2021/12/17 04:38:29;;;;;;;;;;;;;;;;;;5055969;28;2336;-77
2021/12/17 04:40:58;;;;;;;;;;;;;;;;;;5056394;28;1357;-77
2021/12/17 04:43:41;;;;;;;;;;;;;;;;;;5062607;28;1407;-79
2021/12/17 04:46:26;;;;;;;;;;;;;;;;;;5075546;28;1064;-78
2021/12/17 04:59:47;;;;;;;;;;;;;;;;;;5080630;28;1083;-78
2021/12/17 05:02:14;;;;;;;;;;;;;;;;;;5079823;28;1128;-78
2021/12/17 05:04:43;;;;;;;;;;;;;;;;;;5062959;28;1140;-78
2021/12/17 05:07:12;;;;;;;;;;;;;;;;;;5074441;28;1169;-78
2021/12/17 05:09:53;;;;;;;;;;;;;;;;;;5067919;28;1305;-78
2021/12/17 05:20:50;;;;;;;;;;;;;;;;;;5074982;28;1079;-78
2021/12/17 05:23:16;;;;;;;;;;;;;;;;;;5064813;28;1350;-78
2021/12/17 05:25:41;;;;;;;;;;;;;;;;;;5065198;28;1132;-77
2021/12/17 05:28:06;;;;;;;;;;;;;;;;;;5083702;28;1199;-78
2021/12/17 05:30:33;;;;;;;;;;;;;;;;;;5081063;28;1343;-78
2021/12/17 05:32:58;;;;;;;;;;;;;;;;;;5085149;28;1124;-77
2021/12/17 05:35:26;;;;;;;;;;;;;;;;;;5081268;28;1207;-78
2021/12/17 05:37:51;;;;;;;;;;;;;;;;;;5080385;28;1950;-79
2021/12/17 05:40:17;;;;;;;;;;;;;;;;;;5066245;28;1153;-78
2021/12/17 05:42:43;;;;;;;;;;;;;;;;;;5082258;28;1191;-78
2021/12/17 05:45:21;;;;;;;;;;;;;;;;;;5083189;28;1131;-78
2021/12/17 05:47:46;;;;;;;;;;;;;;;;;;5083862;28;1214;-78
2021/12/17 05:50:13;;;;;;;;;;;;;;;;;;5064723;28;1181;-78
2021/12/17 05:52:38;;;;;;;;;;;;;;;;;;5045342;28;1122;-78
2021/12/17 05:55:04;;;;;;;;;;;;;;;;;;5050479;28;1203;-78
2021/12/17 05:57:29;;;;;;;;;;;;;;;;;;5084242;28;1983;-78
2021/12/17 05:59:55;;;;;;;;;;;;;;;;;;5076805;28;1439;-77
2021/12/17 06:02:29;;;;;;;;;;;;;;;;;;5085013;28;1414;-79
2021/12/17 06:04:55;;;;;;;;;;;;;;;;;;5080069;28;1202;-79
2021/12/17 06:07:27;;;;;;;;;;;;;;;;;;5045347;28;1334;-78
2021/12/17 06:09:52;;;;;;;;;;;;;;;;;;5046816;28;1174;-78
2021/12/17 06:12:18;;;;;;;;;;;;;;;;;;5072041;28;1195;-78
2021/12/17 06:14:43;;;;;;;;;;;;;;;;;;5066460;28;1081;-78
2021/12/17 06:17:08;;;;;;;;;;;;;;;;;;5063946;28;2039;-79
2021/12/17 06:19:34;;;;;;;;;;;;;;;;;;5064484;28;1323;-78
2021/12/17 06:21:59;;;;;;;;;;;;;;;;;;5063092;28;1159;-79
2021/12/17 06:24:25;;;;;;;;;;;;;;;;;;5066366;28;1172;-79
2021/12/17 06:26:51;;;;;;;;;;;;;;;;;;5066480;28;1204;-80
2021/12/17 06:29:19;;;;;;;;;;;;;;;;;;5069209;28;1191;-79
2021/12/17 06:31:44;;;;;;;;;;;;;;;;;;5068787;28;1411;-79
2021/12/17 06:34:10;;;;;;;;;;;;;;;;;;5077695;28;1236;-79
2021/12/17 06:36:35;;;;;;;;;;;;;;;;;;5072691;28;2020;-79
2021/12/17 06:39:00;;;;;;;;;;;;;;;;;;5048118;28;1390;-79
2021/12/17 06:41:30;;;;;;;;;;;;;;;;;;5061897;28;1171;-79
2021/12/17 06:43:57;;;;;;;;;;;;;;;;;;5064236;28;1198;-78
2021/12/17 06:46:31;;;;;;;;;;;;;;;;;;5067508;28;1408;-78
2021/12/17 06:49:13;;;;;;;;;;;;;;;;;;5067421;28;1043;-79
2021/12/17 07:10:17;;;;;;;;;;;;;;;;;;5063365;28;1168;-79
2021/12/17 07:21:27;;;;;;;;;;;;;;;;;;5080353;28;1019;-78
2021/12/17 07:39:39;;;;;;;;;;;;;;;;;;5067062;28;1136;-79
2021/12/17 07:42:04;;;;;;;;;;;;;;;;;;5065344;28;1315;-78
2021/12/17 07:44:33;;;;;;;;;;;;;;;;;;5068036;28;1141;-79
2021/12/17 07:46:59;;;;;;;;;;;;;;;;;;5066292;28;1235;-79
2021/12/17 07:49:25;;;;;;;;;;;;;;;;;;5066361;28;1447;-78
2021/12/17 07:51:50;;;;;;;;;;;;;;;;;;5052073;28;1243;-78
2021/12/17 07:54:19;;;;;;;;;;;;;;;;;;5087859;28;1218;-78
2021/12/17 07:56:45;;;;;;;;;;;;;;;;;;5066108;28;1925;-79
2021/12/17 07:59:11;;;;;;;;;;;;;;;;;;5088742;28;1190;-79
2021/12/17 08:01:37;;;;;;;;;;;;;;;;;;5082679;28;1210;-79
2021/12/17 08:04:03;;;;;;;;;;;;;;;;;;5087695;28;1227;-79
2021/12/17 08:06:28;;;;;;;;;;;;;;;;;;5063806;28;1532;-79
2021/12/17 08:08:53;;;;;;;;;;;;;;;;;;5065160;28;1445;-80
2021/12/17 08:11:25;;;;;;;;;;;;;;;;;;5066135;28;1298;-80
2021/12/17 08:13:53;;;;;;;;;;;;;;;;;;5067253;28;1104;-79
2021/12/17 08:16:34;;;;;;;;;;;;;;;;;;5067152;28;1244;-79
2021/12/17 08:29:54;;;;;;;;;;;;;;;;;;5085132;28;1135;-79
2021/12/17 08:32:19;;;;;;;;;;;;;;;;;;5085296;28;1186;-78
2021/12/17 08:34:45;;;;;;;;;;;;;;;;;;5082557;28;1156;-79
2021/12/17 08:37:10;;;;;;;;;;;;;;;;;;5083159;28;1910;-78
2021/12/17 08:39:45;;;;;;;;;;;;;;;;;;5084845;28;1275;-78
2021/12/17 08:42:10;;;;;;;;;;;;;;;;;;5076920;28;1193;-78
2021/12/17 08:44:42;;;;;;;;;;;;;;;;;;5064677;28;1242;-78
2021/12/17 08:47:10;;;;;;;;;;;;;;;;;;5065322;28;1195;-78
2021/12/17 08:49:41;;;;;;;;;;;;;;;;;;5063034;28;1277;-78
2021/12/17 08:52:08;;;;;;;;;;;;;;;;;;5063354;28;1120;-78
2021/12/17 08:54:33;;;;;;;;;;;;;;;;;;5065711;28;1226;-80
2021/12/17 08:56:59;;;;;;;;;;;;;;;;;;5063269;28;1881;-78
2021/12/17 08:59:24;;;;;;;;;;;;;;;;;;5064766;28;1342;-79
2021/12/17 09:01:49;;;;;;;;;;;;;;;;;;5061494;28;1320;-79
2021/12/17 09:04:15;;;;;;;;;;;;;;;;;;5086712;28;1442;-79
2021/12/17 09:06:43;;;;;;;;;;;;;;;;;;5060801;28;1128;-78
2021/12/17 09:09:08;;;;;;;;;;;;;;;;;;5062913;28;1297;-79
2021/12/17 09:11:34;;;;;;;;;;;;;;;;;;5062424;28;1117;-79
2021/12/17 09:14:00;;;;;;;;;;;;;;;;;;5063773;28;1467;-78
2021/12/17 09:16:26;;;;;;;;;;;;;;;;;;5071272;28;1168;-79
2021/12/17 09:18:52;;;;;;;;;;;;;;;;;;5078744;28;1945;-79
2021/12/17 09:21:18;;;;;;;;;;;;;;;;;;5076020;28;1205;-79
2021/12/17 09:23:44;;;;;;;;;;;;;;;;;;5060526;28;1197;-78
2021/12/17 09:26:10;;;;;;;;;;;;;;;;;;5067098;28;1202;-79
2021/12/17 09:28:35;;;;;;;;;;;;;;;;;;5085901;28;1092;-78
2021/12/17 09:31:00;;;;;;;;;;;;;;;;;;5068297;28;1257;-79
2021/12/17 09:33:26;;;;;;;;;;;;;;;;;;5068980;28;1161;-79
2021/12/17 09:35:51;;;;;;;;;;;;;;;;;;5056767;28;1177;-79
2021/12/17 09:38:17;;;;;;;;;;;;;;;;;;5066424;28;1922;-79
2021/12/17 09:40:45;;;;;;;;;;;;;;;;;;5046291;28;1300;-79
2021/12/17 09:43:11;;;;;;;;;;;;;;;;;;5065232;28;1164;-80
2021/12/17 09:45:37;;;;;;;;;;;;;;;;;;5048710;28;1326;-78
2021/12/17 09:48:02;;;;;;;;;;;;;;;;;;5057550;28;1570;-78
2021/12/17 09:50:28;;;;;;;;;;;;;;;;;;5081911;28;1219;-78
2021/12/17 09:52:53;;;;;;;;;;;;;;;;;;5084470;28;1213;-78
2021/12/17 09:55:19;;;;;;;;;;;;;;;;;;5084330;28;1200;-78
2021/12/17 09:57:45;;;;;;;;;;;;;;;;;;5081721;28;1949;-79
2021/12/17 10:00:21;;;;;;;;;;;;;;;;;;5067990;28;1406;-79
2021/12/17 10:02:46;;;;;;;;;;;;;;;;;;5083724;28;1270;-79
2021/12/17 10:05:16;;;;;;;;;;;;;;;;;;5064111;28;1336;-79
2021/12/17 10:07:45;;;;;;;;;;;;;;;;;;5083713;28;1233;-79
2021/12/17 10:10:12;;;;;;;;;;;;;;;;;;5048041;28;1207;-79
2021/12/17 10:12:38;;;;;;;;;;;;;;;;;;5062664;28;1116;-79
2021/12/17 10:15:11;;;;;;;;;;;;;;;;;;5063785;28;1184;-79
2021/12/17 10:18:01;;;;;;;;;;;;;;;;;;5063499;28;1889;-79
2021/12/17 10:20:29;;;;;;;;;;;;;;;;;;5060503;28;1175;-79
2021/12/17 10:23:04;;;;;;;;;;;;;;;;;;5061126;28;1230;-79
2021/12/17 10:25:30;;;;;;;;;;;;;;;;;;5062912;28;1316;-78
2021/12/17 10:27:59;;;;;;;;;;;;;;;;;;5060459;28;1032;-77
2021/12/17 10:30:24;;;;;;;;;;;;;;;;;;5073625;28;1512;-79
2021/12/17 10:32:54;;;;;;;;;;;;;;;;;;5082356;28;1218;-78
2021/12/17 10:35:24;;;;;;;;;;;;;;;;;;5069056;28;1191;-78
2021/12/17 10:37:53;;;;;;;;;;;;;;;;;;5081197;28;1996;-79
2021/12/17 10:40:23;;;;;;;;;;;;;;;;;;5074893;28;1235;-78
2021/12/17 10:43:25;;;;;;;;;;;;;;;;;;5062477;28;1176;-79
2021/12/17 10:45:58;;;;;;;;;;;;;;;;;;5063656;28;1119;-79
2021/12/17 10:50:54;;;;;;;;;;;;;;;;;;5069362;28;1077;-78
2021/12/17 10:53:23;;;;;;;;;;;;;;;;;;5083716;28;1204;-78
2021/12/17 10:55:53;;;;;;;;;;;;;;;;;;5082329;28;1208;-78
2021/12/17 10:58:18;;;;;;;;;;;;;;;;;;5081881;28;1894;-78
2021/12/17 11:00:54;;;;;;;;;;;;;;;;;;5066742;28;1280;-79
2021/12/17 11:03:19;;;;;;;;;;;;;;;;;;5088302;28;1227;-79
2021/12/17 11:05:51;;;;;;;;;;;;;;;;;;5064440;28;1194;-78
2021/12/17 11:08:28;;;;;;;;;;;;;;;;;;5069821;28;1176;-77
2021/12/17 11:10:57;;;;;;;;;;;;;;;;;;5065143;28;1307;-76
2021/12/17 11:13:23;;;;;;;;;;;;;;;;;;5067349;28;1238;-77
2021/12/17 11:15:53;;;;;;;;;;;;;;;;;;5065100;28;1198;-82
2021/12/17 11:18:19;;;;;;;;;;;;;;;;;;5078792;28;1961;-82
2021/12/17 11:20:44;;;;;;;;;;;;;;;;;;5085356;28;1167;-82
2021/12/17 11:23:13;;;;;;;;;;;;;;;;;;5088324;28;1027;-82
2021/12/17 11:25:39;;;;;;;;;;;;;;;;;;5086951;28;1322;-81
2021/12/17 11:28:07;;;;;;;;;;;;;;;;;;5082322;28;1108;-81
2021/12/17 11:30:33;;;;;;;;;;;;;;;;;;5068582;28;1235;-82
2021/12/17 11:33:04;;;;;;;;;;;;;;;;;;5052943;28;1204;-82
2021/12/17 11:35:30;;;;;;;;;;;;;;;;;;5066906;28;1127;-82
2021/12/17 11:37:58;;;;;;;;;;;;;;;;;;5080784;28;1989;-81
2021/12/17 11:40:36;;;;;;;;;;;;;;;;;;5073594;28;1172;-82
2021/12/17 11:43:10;;;;;;;;;;;;;;;;;;5065379;28;1429;-82
2021/12/17 11:45:35;;;;;;;;;;;;;;;;;;5069121;28;1143;-82
2021/12/17 11:48:21;;;;;;;;;;;;;;;;;;5066555;28;1402;-82
2021/12/17 11:51:07;;;;;;;;;;;;;;;;;;5078648;28;1168;-82
2021/12/17 11:53:39;;;;;;;;;;;;;;;;;;5073857;28;1271;-82
2021/12/17 11:56:04;;;;;;;;;;;;;;;;;;5075881;28;1104;-82
2021/12/17 11:58:42;;;;;;;;;;;;;;;;;;5086932;28;1953;-83
2021/12/17 12:01:07;;;;;;;;;;;;;;;;;;5092201;28;1290;-82
2021/12/17 12:03:33;;;;;;;;;;;;;;;;;;5109959;28;1131;-82
2021/12/17 12:05:59;;;;;;;;;;;;;;;;;;5089518;28;1080;-83
2021/12/17 12:08:25;;;;;;;;;;;;;;;;;;5078149;28;1168;-82
2021/12/17 12:11:07;;;;;;;;;;;;;;;;;;5071572;28;1205;-82
2021/12/17 12:13:37;;;;;;;;;;;;;;;;;;5072940;28;1156;-83
2021/12/17 12:16:04;;;;;;;;;;;;;;;;;;5073269;28;1044;-82
2021/12/17 12:18:49;;;;;;;;;;;;;;;;;;5076351;28;1946;-82
2021/12/17 12:21:18;;;;;;;;;;;;;;;;;;5069643;28;1254;-81
2021/12/17 12:23:48;;;;;;;;;;;;;;;;;;5083224;28;1255;-81
2021/12/17 12:26:15;;;;;;;;;;;;;;;;;;5093035;28;1009;-81
2021/12/17 12:28:47;;;;;;;;;;;;;;;;;;5073432;28;1332;-80
2021/12/17 12:31:31;;;;;;;;;;;;;;;;;;5071810;28;1227;-82
2021/12/17 12:34:06;;;;;;;;;;;;;;;;;;5072516;28;1230;-82
2021/12/17 12:36:49;;;;;;;;;;;;;;;;;;5081011;28;1306;-81
2021/12/17 12:39:20;;;;;;;;;;;;;;;;;;5095556;28;1294;-82
2021/12/17 12:41:56;;;;;;;;;;;;;;;;;;5084993;28;1245;-79
2021/12/17 12:44:44;;;;;;;;;;;;;;;;;;5087839;28;1506;-82
2021/12/17 12:47:14;;;;;;;;;;;;;;;;;;5084838;28;1472;-81
2021/12/17 12:49:43;;;;;;;;;;;;;;;;;;5086525;28;1187;-82
2021/12/17 12:52:26;;;;;;;;;;;;;;;;;;5084406;28;1021;-81
2021/12/17 12:55:03;;;;;;;;;;;;;;;;;;5065293;28;1241;-82
2021/12/17 12:57:32;;;;;;;;;;;;;;;;;;5078303;28;1882;-81
2021/12/17 12:59:59;;;;;;;;;;;;;;;;;;5067069;28;1385;-80
2021/12/17 13:02:26;;;;;;;;;;;;;;;;;;5066461;28;1187;-80
2021/12/17 13:04:59;;;;;;;;;;;;;;;;;;5064138;28;1455;-82
2021/12/17 13:07:41;;;;;;;;;;;;;;;;;;5064648;28;1235;-82
2021/12/17 13:10:17;;;;;;;;;;;;;;;;;;5068307;28;1049;-82
2021/12/17 13:13:04;;;;;;;;;;;;;;;;;;5064430;28;1251;-83
2021/12/17 13:15:40;;;;;;;;;;;;;;;;;;5067588;28;1384;-84
2021/12/17 13:21:06;;;;;;;;;;;;;;;;;;5066728;28;1076;-81
2021/12/17 13:23:37;;;;;;;;;;;;;;;;;;5078073;28;1236;-83
2021/12/17 13:26:11;;;;;;;;;;;;;;;;;;5078385;28;1139;-84
2021/12/17 13:28:53;;;;;;;;;;;;;;;;;;5082487;28;1270;-84
2021/12/17 13:31:34;;;;;;;;;;;;;;;;;;5077035;28;1263;-82
2021/12/17 13:34:00;;;;;;;;;;;;;;;;;;5063742;28;1299;-82
2021/12/17 13:36:25;;;;;;;;;;;;;;;;;;5042868;28;1191;-81
2021/12/17 13:38:58;;;;;;;;;;;;;;;;;;5085675;28;1901;-80
2021/12/17 13:41:37;;;;;;;;;;;;;;;;;;5081302;28;1145;-78
2021/12/17 13:44:02;;;;;;;;;;;;;;;;;;5084417;28;1171;-78
2021/12/17 13:46:28;;;;;;;;;;;;;;;;;;5082892;28;1199;-75
2021/12/17 13:48:53;;;;;;;;;;;;;;;;;;5084111;28;1231;-81
2021/12/17 13:51:19;;;;;;;;;;;;;;;;;;5063454;28;1198;-82
2021/12/17 13:53:45;;;;;;;;;;;;;;;;;;5079656;28;1502;-83
2021/12/17 13:56:14;;;;;;;;;;;;;;;;;;5061734;28;1172;-83
2021/12/17 13:58:39;;;;;;;;;;;;;;;;;;5077864;28;1882;-82
2021/12/17 14:01:05;;;;;;;;;;;;;;;;;;5083393;28;1183;-82
2021/12/17 14:03:35;;;;;;;;;;;;;;;;;;5075008;28;1117;-83
2021/12/17 14:06:10;;;;;;;;;;;;;;;;;;5045149;28;1319;-82
2021/12/17 14:08:39;;;;;;;;;;;;;;;;;;5071338;28;1238;-83
2021/12/17 14:11:16;;;;;;;;;;;;;;;;;;5084853;28;1306;-83
2021/12/17 14:13:42;;;;;;;;;;;;;;;;;;5063843;28;1156;-83
2021/12/17 14:16:07;;;;;;;;;;;;;;;;;;5073957;28;1156;-82
2021/12/17 14:18:34;;;;;;;;;;;;;;;;;;5082164;28;1881;-82
2021/12/17 14:21:05;;;;;;;;;;;;;;;;;;5074336;28;1372;-83
2021/12/17 14:23:32;;;;;;;;;;;;;;;;;;5064951;28;1468;-82
2021/12/17 14:26:05;;;;;;;;;;;;;;;;;;5064057;28;1085;-82
2021/12/17 14:28:32;;;;;;;;;;;;;;;;;;5068311;28;1330;-82
2021/12/17 14:30:57;;;;;;;;;;;;;;;;;;5075507;28;1199;-83
2021/12/17 14:33:23;;;;;;;;;;;;;;;;;;5077480;28;1108;-84
2021/12/17 14:36:12;;;;;;;;;;;;;;;;;;5074460;28;1293;-83
2021/12/17 14:38:40;;;;;;;;;;;;;;;;;;5062227;28;1905;-82
2021/12/17 14:41:38;;;;;;;;;;;;;;;;;;5063349;28;1297;-82
2021/12/17 14:44:17;;;;;;;;;;;;;;;;;;5073914;28;1274;-81
2021/12/17 14:46:56;;;;;;;;;;;;;;;;;;5075551;28;1192;-83
2021/12/17 15:05:43;;;;;;;;;;;;;;;;;;5069358;28;1191;-83
2021/12/17 15:08:10;;;;;;;;;;;;;;;;;;5077231;28;1132;-85
2021/12/17 15:10:35;;;;;;;;;;;;;;;;;;5082154;28;1191;-82
2021/12/17 15:13:01;;;;;;;;;;;;;;;;;;5073684;28;1404;-82
2021/12/17 15:15:29;;;;;;;;;;;;;;;;;;5065749;28;1260;-83
2021/12/17 15:17:55;;;;;;;;;;;;;;;;;;5071751;28;1957;-83
2021/12/17 15:20:25;;;;;;;;;;;;;;;;;;5054564;28;1297;-82
2021/12/17 15:22:51;;;;;;;;;;;;;;;;;;5074586;28;1174;-82
2021/12/17 15:25:17;;;;;;;;;;;;;;;;;;5064535;28;1302;-83
2021/12/17 15:27:42;;;;;;;;;;;;;;;;;;5061373;28;1162;-83
2021/12/17 15:30:13;;;;;;;;;;;;;;;;;;5061655;28;1291;-82
2021/12/17 15:32:39;;;;;;;;;;;;;;;;;;5062434;28;1167;-83
2021/12/17 15:35:05;;;;;;;;;;;;;;;;;;5067603;28;1172;-83
2021/12/17 15:37:30;;;;;;;;;;;;;;;;;;5081339;28;1989;-81
2021/12/17 15:39:56;;;;;;;;;;;;;;;;;;5072759;28;1120;-84
2021/12/17 15:42:21;;;;;;;;;;;;;;;;;;5061102;28;1188;-84
2021/12/17 15:44:46;;;;;;;;;;;;;;;;;;5044012;28;1182;-83
2021/12/17 15:47:12;;;;;;;;;;;;;;;;;;5062902;28;1149;-83
2021/12/17 15:49:37;;;;;;;;;;;;;;;;;;5061857;28;1499;-83
2021/12/17 15:52:07;;;;;;;;;;;;;;;;;;5064571;28;1218;-83
2021/12/17 15:54:33;;;;;;;;;;;;;;;;;;5064285;28;1385;-83
2021/12/17 15:56:58;;;;;;;;;;;;;;;;;;5050707;28;1929;-83
2021/12/17 15:59:23;;;;;;;;;;;;;;;;;;5066002;28;1353;-83
2021/12/17 16:01:49;;;;;;;;;;;;;;;;;;5065475;28;1285;-83
2021/12/17 16:04:15;;;;;;;;;;;;;;;;;;5065330;28;1251;-83
2021/12/17 16:06:40;;;;;;;;;;;;;;;;;;5070045;28;1200;-84
2021/12/17 16:09:13;;;;;;;;;;;;;;;;;;5068550;28;1148;-84
2021/12/17 16:12:00;;;;;;;;;;;;;;;;;;5061684;28;1198;-83
2021/12/17 16:22:33;;;;;;;;;;;;;;;;;;5085295;28;980;-80
2021/12/17 16:24:58;;;;;;;;;;;;;;;;;;5084089;28;1187;-78
2021/12/17 16:27:23;;;;;;;;;;;;;;;;;;5070728;28;1291;-78
2021/12/17 16:29:49;;;;;;;;;;;;;;;;;;5074787;28;1120;-78
2021/12/17 16:32:17;;;;;;;;;;;;;;;;;;5064780;28;1133;-79
2021/12/17 16:34:42;;;;;;;;;;;;;;;;;;5079484;28;1221;-79
2021/12/17 16:37:08;;;;;;;;;;;;;;;;;;5081278;28;1934;-79
2021/12/17 16:39:33;;;;;;;;;;;;;;;;;;5063436;28;1159;-79
2021/12/17 16:41:58;;;;;;;;;;;;;;;;;;5058176;28;1195;-79
2021/12/17 16:44:39;;;;;;;;;;;;;;;;;;5057987;28;1538;-80
2021/12/17 16:47:04;;;;;;;;;;;;;;;;;;5059252;28;1033;-79
2021/12/17 16:49:33;;;;;;;;;;;;;;;;;;5039874;28;1337;-78
2021/12/17 16:51:59;;;;;;;;;;;;;;;;;;5055875;28;1190;-80
2021/12/17 16:54:25;;;;;;;;;;;;;;;;;;5052333;28;1319;-80
2021/12/17 16:56:50;;;;;;;;;;;;;;;;;;5076960;28;1231;-79
2021/12/17 16:59:21;;;;;;;;;;;;;;;;;;5077558;28;1889;-79
2021/12/17 17:01:47;;;;;;;;;;;;;;;;;;5060665;28;1226;-78
2021/12/17 17:04:12;;;;;;;;;;;;;;;;;;5057887;28;1168;-79
2021/12/17 17:06:39;;;;;;;;;;;;;;;;;;5038417;28;1317;-78
2021/12/17 17:09:07;;;;;;;;;;;;;;;;;;5064769;28;1199;-76
2021/12/17 17:11:33;;;;;;;;;;;;;;;;;;5074912;28;1203;-77
2021/12/17 17:13:59;;;;;;;;;;;;;;;;;;5079448;28;1040;-80
2021/12/17 17:16:24;;;;;;;;;;;;;;;;;;5075871;28;1240;-84
2021/12/17 17:18:49;;;;;;;;;;;;;;;;;;5081910;28;1885;-83
2021/12/17 17:21:15;;;;;;;;;;;;;;;;;;5072925;28;1168;-85
2021/12/17 17:23:41;;;;;;;;;;;;;;;;;;5058281;28;1538;-83
2021/12/17 17:26:07;;;;;;;;;;;;;;;;;;5084861;28;1089;-82
2021/12/17 17:28:33;;;;;;;;;;;;;;;;;;5069195;28;1214;-82
2021/12/17 17:30:59;;;;;;;;;;;;;;;;;;5079739;28;1132;-83
2021/12/17 17:33:24;;;;;;;;;;;;;;;;;;5051013;28;1224;-82
2021/12/17 17:35:50;;;;;;;;;;;;;;;;;;5051287;28;1198;-84
2021/12/17 17:38:16;;;;;;;;;;;;;;;;;;5075851;28;1975;-84
2021/12/17 17:40:44;;;;;;;;;;;;;;;;;;5056163;28;1501;-84
2021/12/17 17:43:15;;;;;;;;;;;;;;;;;;5083365;28;1314;-83
2021/12/17 17:45:41;;;;;;;;;;;;;;;;;;5081883;28;1336;-85
2021/12/17 17:48:08;;;;;;;;;;;;;;;;;;5078577;28;1326;-84
2021/12/17 17:50:35;;;;;;;;;;;;;;;;;;5077924;28;1148;-83
2021/12/17 17:53:01;;;;;;;;;;;;;;;;;;5073739;28;1151;-83
2021/12/17 17:55:26;;;;;;;;;;;;;;;;;;5076667;28;1187;-84
2021/12/17 17:57:52;;;;;;;;;;;;;;;;;;5078231;28;1898;-85
2021/12/17 18:00:36;;;;;;;;;;;;;;;;;;5059971;28;1319;-84
2021/12/17 18:03:01;;;;;;;;;;;;;;;;;;5073604;28;1322;-84
2021/12/17 18:05:26;;;;;;;;;;;;;;;;;;5055969;28;1435;-83
2021/12/17 18:07:52;;;;;;;;;;;;;;;;;;5072268;28;998;-84
2021/12/17 18:10:26;;;;;;;;;;;;;;;;;;5068707;28;1288;-78
2021/12/17 18:12:53;;;;;;;;;;;;;;;;;;5074645;28;1097;-86
2021/12/17 18:15:32;;;;;;;;;;;;;;;;;;;;;
2021/12/17 18:17:58;;;;;;;;;;;;;;;;;;5081842;28;1898;-84
2021/12/17 18:20:26;;;;;;;;;;;;;;;;;;5072142;28;1171;-85
2021/12/17 18:22:52;;;;;;;;;;;;;;;;;;5079917;28;1136;-85
2021/12/17 18:25:18;;;;;;;;;;;;;;;;;;5082226;28;1171;-85
2021/12/17 18:27:44;;;;;;;;;;;;;;;;;;5082702;28;1182;-84
2021/12/17 18:30:10;;;;;;;;;;;;;;;;;;5065287;28;1220;-84
2021/12/17 18:32:37;;;;;;;;;;;;;;;;;;5063580;28;1148;-84
2021/12/17 18:35:02;;;;;;;;;;;;;;;;;;5079724;28;1318;-84
2021/12/17 18:37:27;;;;;;;;;;;;;;;;;;5080338;28;1914;-84
2021/12/17 18:39:53;;;;;;;;;;;;;;;;;;5064442;28;1164;-84
2021/12/17 18:45:02;;;;;;;;;;;;;;;;;;5065606;28;1056;-84
2021/12/17 18:47:27;;;;;;;;;;;;;;;;;;5061675;28;1290;-85
2021/12/17 18:49:53;;;;;;;;;;;;;;;;;;5065168;28;1148;-85
2021/12/17 18:52:18;;;;;;;;;;;;;;;;;;5066701;28;1240;-85
2021/12/17 18:54:43;;;;;;;;;;;;;;;;;;5075592;28;1171;-85
2021/12/17 18:57:08;;;;;;;;;;;;;;;;;;5063934;28;1940;-86
2021/12/17 18:59:34;;;;;;;;;;;;;;;;;;5045736;28;1178;-86
2021/12/17 19:01:59;;;;;;;;;;;;;;;;;;5063610;28;1150;-85
2021/12/17 19:04:28;;;;;;;;;;;;;;;;;;5072930;28;1320;-85
2021/12/17 19:06:55;;;;;;;;;;;;;;;;;;5078956;28;1075;-86
2021/12/17 19:09:21;;;;;;;;;;;;;;;;;;5065013;28;1156;-84
2021/12/17 19:11:47;;;;;;;;;;;;;;;;;;5061216;28;1178;-85
2021/12/17 19:14:13;;;;;;;;;;;;;;;;;;5078589;28;1144;-86
2021/12/17 19:16:44;;;;;;;;;;;;;;;;;;5073766;28;1170;-86
2021/12/17 19:19:13;;;;;;;;;;;;;;;;;;5069243;28;1890;-85
2021/12/17 19:21:43;;;;;;;;;;;;;;;;;;5061940;28;1339;-84
2021/12/17 19:24:10;;;;;;;;;;;;;;;;;;5051929;28;1343;-83
2021/12/17 19:26:36;;;;;;;;;;;;;;;;;;5072340;28;1198;-84
2021/12/17 19:29:03;;;;;;;;;;;;;;;;;;5074452;28;1307;-84
2021/12/17 19:31:31;;;;;;;;;;;;;;;;;;5075994;28;1255;-83
2021/12/17 19:33:57;;;;;;;;;;;;;;;;;;5083986;28;1400;-86
2021/12/17 19:36:29;;;;;;;;;;;;;;;;;;5080378;28;1120;-88
2021/12/17 19:38:56;;;;;;;;;;;;;;;;;;5077291;28;1965;-86
2021/12/17 19:41:35;;;;;;;;;;;;;;;;;;5064335;28;1180;-86
2021/12/17 19:44:00;;;;;;;;;;;;;;;;;;5070284;28;1270;-84
2021/12/17 19:46:40;;;;;;;;;;;;;;;;;;5061523;28;1164;-84
2021/12/17 19:49:44;;;;;;;;;;;;;;;;;;5078328;28;1226;-84
2021/12/17 19:51:54;;;;;;;;;;;;;;;;;;5072187;28;1261;-83
2021/12/17 19:54:20;;;;;;;;;;;;;;;;;;5087373;28;1199;-83
2021/12/17 19:56:45;;;;;;;;;;;;;;;;;;5058947;28;1295;-84
2021/12/17 19:59:12;;;;;;;;;;;;;;;;;;5085411;28;1893;-86
2021/12/17 20:01:37;;;;;;;;;;;;;;;;;;5064975;28;1258;-86
2021/12/17 20:04:06;;;;;;;;;;;;;;;;;;5062456;28;1196;-86
2021/12/17 20:06:43;;;;;;;;;;;;;;;;;;5075505;28;1288;-85
2021/12/17 20:09:09;;;;;;;;;;;;;;;;;;5077601;28;1397;-85
2021/12/17 20:11:35;;;;;;;;;;;;;;;;;;5058771;28;1252;-85
2021/12/17 20:14:00;;;;;;;;;;;;;;;;;;5073776;28;1155;-86
2021/12/17 20:16:26;;;;;;;;;;;;;;;;;;5080126;28;1222;-84
2021/12/17 20:18:52;;;;;;;;;;;;;;;;;;5077479;28;1901;-87
2021/12/17 20:21:17;;;;;;;;;;;;;;;;;;5083962;28;1224;-87
2021/12/17 20:23:42;;;;;;;;;;;;;;;;;;5079915;28;1172;-87
2021/12/17 20:26:08;;;;;;;;;;;;;;;;;;5073180;28;1108;-85
2021/12/17 20:28:35;;;;;;;;;;;;;;;;;;5073926;28;1315;-86
2021/12/17 20:31:01;;;;;;;;;;;;;;;;;;5078113;28;1313;-86